• Join FlightAware (Why Join?)
  • Login
  • US Flag 
07:50PM EDT


 

Airport Tracker/Info


-or-


 

Live Flight TrackerFlight Track Log ✈ SKW6345 ✈ 11-Aug-2013 ✈ KSFO - KBZN

Flight Track Log - Related Links

Times and Time Zones

All times are in EDT time to prevent confusion due to time zone crossing. See the SKW6345 flight status page for this flight to view local times or setup timezone preferences in your user account.

Time Position Orientation Groundspeed Altitude Reporting Facility
EDT Latitude Longitude Course Direction KTS MPH feet Rate Location/Type
11:46AM 37.6500 -122.3333 34° Northeast 185 213 1,800  Level Northern Cal TRACON
11:47AM 37.6833 -122.2833 50° Northeast 217 250 4,300 2,400 Climbing Northern Cal TRACON
11:49AM 37.7032 -122.2802 38° Northeast  Level FlightAware Approximate
11:50AM 37.8094 -122.1708 46° Northeast  Level FlightAware Approximate
11:50AM 37.8244 -122.1508 37° Northeast 277 319 10,300  Level Oakland Center
11:51AM 37.9148 -122.0612 34° Northeast  Level FlightAware Approximate
11:51AM 37.9106 -122.0686 37° Northeast 324 373 12,700  Level Oakland Center
11:52AM 37.9850 -121.9961 38° Northeast 336 387 15,100 2,280 Climbing Oakland Center
11:53AM 38.0628 -121.9169 39° Northeast 355 409 17,400 1,980 Climbing Oakland Center
11:54AM 38.1375 -121.8300 42° Northeast 363 418 19,200 1,800 Climbing Oakland Center
11:55AM 38.2161 -121.7383 42° Northeast 380 437 21,200 1,740 Climbing Oakland Center
11:56AM 38.2967 -121.6425 43° Northeast 395 455 22,800 1,560 Climbing Oakland Center
11:57AM 38.3811 -121.5439 42° Northeast 410 472 24,400 1,500 Climbing Oakland Center
11:58AM 38.4689 -121.4442 42° Northeast 421 484 25,900 1,380 Climbing Oakland Center
11:59AM 38.5575 -121.3392 43° Northeast 430 495 27,300 1,380 Climbing Oakland Center
12:00PM 38.6658 -121.2100 43° Northeast 442 509 28,800 1,200 Climbing Oakland Center
12:01PM 38.7486 -121.1072 44° Northeast 459 528 29,800 1,020 Climbing Oakland Center
12:02PM 38.8422 -120.9964 43° Northeast 457 526 30,900 960 Climbing Oakland Center
12:03PM 38.9383 -120.8814 43° Northeast 469 540 31,800 1,260 Climbing Oakland Center
12:04PM 39.0528 -120.7439 43° Northeast 470 541 33,500 1,260 Climbing Oakland Center
12:05PM 39.1483 -120.6281 43° Northeast 470 541 34,400 900 Climbing Oakland Center
12:06PM 39.2431 -120.5122 43° Northeast 470 541 35,400 900 Climbing Oakland Center
12:07PM 39.3397 -120.3944 43° Northeast 475 547 36,300 840 Climbing Oakland Center
12:08PM 39.4344 -120.2781 43° Northeast 473 544 37,200 780 Climbing Oakland Center
12:09PM 39.5303 -120.1600 44° Northeast 473 544 37,900 660 Climbing Oakland Center
12:10PM 39.6208 -120.0403 46° Northeast 465 535 38,600 480 Climbing Oakland Center
12:11PM 39.7150 -119.9236 44° Northeast 465 535 39,000 180 Climbing Oakland Center
12:12PM 39.8117 -119.8031 44° Northeast 479 551 39,000  Level Oakland Center
12:13PM 39.9092 -119.6806 44° Northeast 485 558 39,000  Level Oakland Center
12:14PM 40.0061 -119.5581 44° Northeast 484 557 39,000  Level Oakland Center
12:15PM 40.1228 -119.4100 44° Northeast 483 556 39,000  Level Oakland Center
12:16PM 40.2206 -119.2858 44° Northeast 486 559 39,000  Level Oakland Center
12:17PM 40.3169 -119.1631 44° Northeast 482 555 39,000  Level Oakland Center
12:18PM 40.4133 -119.0400 44° Northeast 483 556 39,000  Level Oakland Center
12:19PM 40.5092 -118.9167 44° Northeast 480 552 39,000  Level Oakland Center
12:20PM 40.6042 -118.7939 44° Northeast 479 551 39,000  Level Oakland Center
12:21PM 40.6611 -118.7194 45° Northeast 479 551 39,000  Level Salt Lake Center
12:22PM 40.7689 -118.5800 44° Northeast 483 556 39,000  Level Salt Lake Center
12:23PM 40.8603 -118.4603 45° Northeast 483 556 39,000  Level Salt Lake Center
12:24PM 40.9678 -118.3197 45° Northeast 485 558 39,000  Level Salt Lake Center
12:25PM 41.0589 -118.1983 45° Northeast 485 558 39,000  Level Salt Lake Center
12:26PM 41.1675 -118.0553 45° Northeast 488 562 39,000  Level Salt Lake Center
12:27PM 41.2594 -117.9331 45° Northeast 488 562 39,000  Level Salt Lake Center
12:28PM 41.3508 -117.8111 45° Northeast 486 559 39,000  Level Salt Lake Center
12:29PM 41.4578 -117.6686 45° Northeast 486 559 39,000  Level Salt Lake Center
12:30PM 41.5492 -117.5439 46° Northeast 488 562 39,000  Level Salt Lake Center
12:31PM 41.6561 -117.3986 45° Northeast 490 564 39,000  Level Salt Lake Center
12:32PM 41.7481 -117.2697 46° Northeast 500 575 39,000  Level Salt Lake Center
12:34PM 41.8539 -117.1244 46° Northeast 486 559 39,000  Level Salt Lake Center
12:35PM 41.9444 -116.9997 46° Northeast 485 558 39,000  Level Salt Lake Center
12:36PM 42.0506 -116.8508 46° Northeast 489 563 39,000  Level Salt Lake Center
12:37PM 42.1414 -116.7258 46° Northeast 488 562 39,000  Level Salt Lake Center
12:38PM 42.2356 -116.5953 46° Northeast 487 560 39,000  Level Salt Lake Center
12:39PM 42.3411 -116.4464 46° Northeast 491 565 39,000  Level Salt Lake Center
12:40PM 42.4303 -116.3211 46° Northeast 482 555 39,000  Level Salt Lake Center
12:41PM 42.5356 -116.1728 46° Northeast 488 562 39,000  Level Salt Lake Center
12:42PM 42.6258 -116.0458 46° Northeast 489 563 39,000  Level Salt Lake Center
12:43PM 42.7297 -115.8964 47° Northeast 489 563 39,000  Level Salt Lake Center
12:44PM 42.8189 -115.7672 47° Northeast 491 565 39,000  Level Salt Lake Center
12:45PM 42.9233 -115.6156 47° Northeast 492 566 39,000  Level Salt Lake Center
12:46PM 43.0131 -115.4875 46° Northeast 487 560 39,000  Level Salt Lake Center
12:47PM 43.1167 -115.3375 47° Northeast 487 560 39,000  Level Salt Lake Center
12:48PM 43.2058 -115.2069 47° Northeast 489 563 39,000  Level Salt Lake Center
12:49PM 43.3097 -115.0550 47° Northeast 492 566 39,000  Level Salt Lake Center
12:50PM 43.3981 -114.9244 47° Northeast 492 566 39,000  Level Salt Lake Center
12:51PM 43.4858 -114.7933 47° Northeast 488 562 39,000  Level Salt Lake Center
12:52PM 43.5892 -114.6389 47° Northeast 490 564 39,000  Level Salt Lake Center
12:53PM 43.6775 -114.5072 47° Northeast 490 564 39,000  Level Salt Lake Center
12:54PM 43.7803 -114.3531 47° Northeast 488 562 39,000  Level Salt Lake Center
12:55PM 43.8681 -114.2189 48° Northeast 491 565 39,000  Level Salt Lake Center
12:56PM 43.9703 -114.0636 48° Northeast 489 563 39,000  Level Salt Lake Center
12:57PM 44.0528 -113.9300 49° Northeast 474 545 39,000  Level Salt Lake Center
12:58PM 44.1494 -113.7861 47° Northeast 492 566 39,000  Level Salt Lake Center
12:59PM 44.2494 -113.6294 48° Northeast 487 560 39,000  Level Salt Lake Center
01:00PM 44.3361 -113.4956 48° Northeast 485 558 39,000  Level Salt Lake Center
01:01PM 44.4372 -113.3375 48° Northeast 487 560 39,100  Climbing Salt Lake Center
01:02PM 44.5222 -113.2039 48° Northeast 482 555 39,000 -60 Descending Salt Lake Center
01:03PM 44.6222 -113.0456 48° Northeast 484 557 39,000 -300 Level Salt Lake Center
01:05PM 44.7064 -112.9108 49° Northeast 480 552 38,400 -1,380 Descending Salt Lake Center
01:06PM 44.8042 -112.7561 48° Northeast 475 547 36,200 -2,280 Descending Salt Lake Center
01:07PM 44.8842 -112.6258 49° Northeast 462 532 33,800 -2,520 Descending Salt Lake Center
01:08PM 44.9772 -112.4783 48° Northeast 450 518 31,000 -2,520 Descending Salt Lake Center
01:09PM 45.0539 -112.3522 49° Northeast 443 510 28,600 -2,340 Descending Salt Lake Center
01:10PM 45.1289 -112.2322 48° Northeast 432 497 26,200 -2,580 Descending Salt Lake Center
01:11PM 45.2125 -112.0933 49° Northeast 416 479 23,300 -2,580 Descending Salt Lake Center
01:12PM 45.2825 -111.9789 49° Northeast 403 464 20,900 -2,400 Descending Salt Lake Center
01:13PM 45.3525 -111.8622 49° Northeast 392 451 18,400 -2,340 Descending Salt Lake Center
01:14PM 45.4200 -111.7494 50° Northeast 381 438 16,100 -2,580 Descending Salt Lake Center
01:15PM 45.4989 -111.6203 49° Northeast 365 420 13,100 -1,500 Descending Salt Lake Center
01:16PM 45.5586 -111.5197 50° Northeast 339 390 13,000 -600 Descending Salt Lake Center
01:17PM 45.6111 -111.4294 50° Northeast 305 351 11,900 -1,020 Descending Salt Lake Center
01:18PM 45.6494 -111.3350 60° Northeast 290 334 10,900 -1,320 Descending Salt Lake Center
01:19PM 45.6664 -111.2494 74° East 251 289 9,200 -1,800 Descending Salt Lake Center
01:20PM 45.6767 -111.1439 82° East 233 268 7,200 -1,560 Descending Salt Lake Center
01:21PM 45.7081 -111.0867 52° Northeast 201 231 6,000 -960 Descending Salt Lake Center
01:22PM 45.7411 -111.1017 342° North 171 197 5,300 -780 Descending Salt Lake Center
01:23PM 45.7694 -111.1419 315° West 153 176 4,500 -780 Descending Salt Lake Center